sensor_id;sensor_type;location;lat;lon;timestamp;temperature;humidity
64961;SHT31;51487;52.266;10.542;2023-12-20T00:01:35;7.46;99.99
64961;SHT31;51487;52.266;10.542;2023-12-20T00:04:01;7.30;99.99
64961;SHT31;51487;52.266;10.542;2023-12-20T00:06:27;7.26;99.99
64961;SHT31;51487;52.266;10.542;2023-12-20T00:08:52;7.18;99.99
64961;SHT31;51487;52.266;10.542;2023-12-20T00:11:18;7.18;99.99
64961;SHT31;51487;52.266;10.542;2023-12-20T00:13:44;7.28;99.99
64961;SHT31;51487;52.266;10.542;2023-12-20T00:16:09;7.19;99.99
64961;SHT31;51487;52.266;10.542;2023-12-20T00:18:35;7.26;99.99
64961;SHT31;51487;52.266;10.542;2023-12-20T00:21:00;7.25;99.99
64961;SHT31;51487;52.266;10.542;2023-12-20T00:23:26;7.18;99.99
64961;SHT31;51487;52.266;10.542;2023-12-20T00:25:51;7.28;99.99
64961;SHT31;51487;52.266;10.542;2023-12-20T00:28:17;7.28;99.99
64961;SHT31;51487;52.266;10.542;2023-12-20T00:30:42;7.23;99.99
64961;SHT31;51487;52.266;10.542;2023-12-20T00:33:08;7.22;99.99
64961;SHT31;51487;52.266;10.542;2023-12-20T00:35:33;7.28;99.99
64961;SHT31;51487;52.266;10.542;2023-12-20T00:37:59;7.32;99.99
64961;SHT31;51487;52.266;10.542;2023-12-20T00:40:24;7.35;99.99
64961;SHT31;51487;52.266;10.542;2023-12-20T00:42:50;7.40;99.99
64961;SHT31;51487;52.266;10.542;2023-12-20T00:45:15;7.50;99.99
64961;SHT31;51487;52.266;10.542;2023-12-20T00:47:41;7.38;99.99
64961;SHT31;51487;52.266;10.542;2023-12-20T00:50:08;7.47;99.99
64961;SHT31;51487;52.266;10.542;2023-12-20T00:52:34;7.38;99.99
64961;SHT31;51487;52.266;10.542;2023-12-20T00:54:59;7.36;99.99
64961;SHT31;51487;52.266;10.542;2023-12-20T00:57:25;7.45;99.99
64961;SHT31;51487;52.266;10.542;2023-12-20T00:59:51;7.56;99.99
64961;SHT31;51487;52.266;10.542;2023-12-20T01:02:16;7.47;99.99
64961;SHT31;51487;52.266;10.542;2023-12-20T01:04:43;7.62;99.99
64961;SHT31;51487;52.266;10.542;2023-12-20T01:07:08;7.63;99.75
64961;SHT31;51487;52.266;10.542;2023-12-20T01:09:34;7.56;99.78
64961;SHT31;51487;52.266;10.542;2023-12-20T01:11:59;7.69;99.28
64961;SHT31;51487;52.266;10.542;2023-12-20T01:14:24;7.36;99.17
64961;SHT31;51487;52.266;10.542;2023-12-20T01:16:51;7.49;99.01
64961;SHT31;51487;52.266;10.542;2023-12-20T01:19:16;7.50;98.84
64961;SHT31;51487;52.266;10.542;2023-12-20T01:21:42;7.35;99.36
64961;SHT31;51487;52.266;10.542;2023-12-20T01:24:08;7.40;99.05
64961;SHT31;51487;52.266;10.542;2023-12-20T01:26:34;7.35;99.01
64961;SHT31;51487;52.266;10.542;2023-12-20T01:28:59;7.32;99.56
64961;SHT31;51487;52.266;10.542;2023-12-20T01:31:26;7.40;98.10
64961;SHT31;51487;52.266;10.542;2023-12-20T01:33:52;7.29;98.63
64961;SHT31;51487;52.266;10.542;2023-12-20T01:36:18;7.14;98.75
64961;SHT31;51487;52.266;10.542;2023-12-20T01:38:43;7.12;98.47
64961;SHT31;51487;52.266;10.542;2023-12-20T01:41:09;7.15;97.95
64961;SHT31;51487;52.266;10.542;2023-12-20T01:43:34;6.92;98.29
64961;SHT31;51487;52.266;10.542;2023-12-20T01:46:00;6.99;98.10
64961;SHT31;51487;52.266;10.542;2023-12-20T01:48:27;6.97;98.33
64961;SHT31;51487;52.266;10.542;2023-12-20T01:50:54;6.94;98.03
64961;SHT31;51487;52.266;10.542;2023-12-20T01:53:23;6.81;97.99
64961;SHT31;51487;52.266;10.542;2023-12-20T01:55:54;6.74;98.30
64961;SHT31;51487;52.266;10.542;2023-12-20T01:58:22;6.80;98.46
64961;SHT31;51487;52.266;10.542;2023-12-20T02:00:49;6.88;97.78
64961;SHT31;51487;52.266;10.542;2023-12-20T02:03:16;6.71;97.74
64961;SHT31;51487;52.266;10.542;2023-12-20T02:05:42;6.78;97.96
64961;SHT31;51487;52.266;10.542;2023-12-20T02:08:07;6.74;97.89
64961;SHT31;51487;52.266;10.542;2023-12-20T02:10:34;6.80;97.42
64961;SHT31;51487;52.266;10.542;2023-12-20T02:12:59;6.78;97.69
64961;SHT31;51487;52.266;10.542;2023-12-20T02:15:25;6.73;97.79
64961;SHT31;51487;52.266;10.542;2023-12-20T02:17:52;6.71;97.91
64961;SHT31;51487;52.266;10.542;2023-12-20T02:20:19;6.74;97.59
64961;SHT31;51487;52.266;10.542;2023-12-20T02:22:44;6.68;97.62
64961;SHT31;51487;52.266;10.542;2023-12-20T02:25:10;6.77;98.00
64961;SHT31;51487;52.266;10.542;2023-12-20T02:27:36;6.66;98.10
64961;SHT31;51487;52.266;10.542;2023-12-20T02:30:02;6.71;97.68
64961;SHT31;51487;52.266;10.542;2023-12-20T02:32:28;6.67;97.74
64961;SHT31;51487;52.266;10.542;2023-12-20T02:34:55;6.64;98.43
64961;SHT31;51487;52.266;10.542;2023-12-20T02:37:21;6.64;97.91
64961;SHT31;51487;52.266;10.542;2023-12-20T02:39:46;6.58;98.09
64961;SHT31;51487;52.266;10.542;2023-12-20T02:42:12;6.54;98.28
64961;SHT31;51487;52.266;10.542;2023-12-20T02:44:37;6.44;98.19
64961;SHT31;51487;52.266;10.542;2023-12-20T02:47:03;6.44;97.86
64961;SHT31;51487;52.266;10.542;2023-12-20T02:49:28;6.39;97.85
64961;SHT31;51487;52.266;10.542;2023-12-20T02:51:54;6.37;98.88
64961;SHT31;51487;52.266;10.542;2023-12-20T02:54:19;6.29;98.35
64961;SHT31;51487;52.266;10.542;2023-12-20T02:56:45;6.22;98.28
64961;SHT31;51487;52.266;10.542;2023-12-20T02:59:10;6.10;98.66
64961;SHT31;51487;52.266;10.542;2023-12-20T03:01:43;6.08;98.49
64961;SHT31;51487;52.266;10.542;2023-12-20T03:04:08;6.09;98.42
64961;SHT31;51487;52.266;10.542;2023-12-20T03:06:34;6.03;98.35
64961;SHT31;51487;52.266;10.542;2023-12-20T03:09:00;5.97;98.72
64961;SHT31;51487;52.266;10.542;2023-12-20T03:11:28;5.99;98.39
64961;SHT31;51487;52.266;10.542;2023-12-20T03:13:57;5.92;98.44
64961;SHT31;51487;52.266;10.542;2023-12-20T03:16:23;5.84;98.44
64961;SHT31;51487;52.266;10.542;2023-12-20T03:18:49;5.92;98.26
64961;SHT31;51487;52.266;10.542;2023-12-20T03:21:15;5.89;98.12
64961;SHT31;51487;52.266;10.542;2023-12-20T03:23:41;5.81;98.29
64961;SHT31;51487;52.266;10.542;2023-12-20T03:26:08;5.77;98.37
64961;SHT31;51487;52.266;10.542;2023-12-20T03:28:34;5.65;98.35
64961;SHT31;51487;52.266;10.542;2023-12-20T03:31:00;5.70;98.15
64961;SHT31;51487;52.266;10.542;2023-12-20T03:33:25;5.75;97.92
64961;SHT31;51487;52.266;10.542;2023-12-20T03:35:51;5.71;98.06
64961;SHT31;51487;52.266;10.542;2023-12-20T03:38:16;5.68;97.94
64961;SHT31;51487;52.266;10.542;2023-12-20T03:40:42;5.70;97.93
64961;SHT31;51487;52.266;10.542;2023-12-20T03:43:08;5.68;98.11
64961;SHT31;51487;52.266;10.542;2023-12-20T03:45:33;5.62;98.29
64961;SHT31;51487;52.266;10.542;2023-12-20T03:47:59;5.54;97.81
64961;SHT31;51487;52.266;10.542;2023-12-20T03:50:26;5.51;98.07
64961;SHT31;51487;52.266;10.542;2023-12-20T03:52:52;5.52;97.85
64961;SHT31;51487;52.266;10.542;2023-12-20T03:55:18;5.48;97.69
64961;SHT31;51487;52.266;10.542;2023-12-20T03:57:44;5.47;97.42
64961;SHT31;51487;52.266;10.542;2023-12-20T04:00:10;5.50;97.19
64961;SHT31;51487;52.266;10.542;2023-12-20T04:02:40;5.52;96.72
64961;SHT31;51487;52.266;10.542;2023-12-20T04:05:08;5.48;96.68
64961;SHT31;51487;52.266;10.542;2023-12-20T04:07:37;5.44;96.59
64961;SHT31;51487;52.266;10.542;2023-12-20T04:10:03;5.47;96.06
64961;SHT31;51487;52.266;10.542;2023-12-20T04:12:30;5.44;96.09
64961;SHT31;51487;52.266;10.542;2023-12-20T04:14:56;5.47;96.01
64961;SHT31;51487;52.266;10.542;2023-12-20T04:17:22;5.44;95.57
64961;SHT31;51487;52.266;10.542;2023-12-20T04:19:51;5.46;95.62
64961;SHT31;51487;52.266;10.542;2023-12-20T04:22:18;5.43;95.90
64961;SHT31;51487;52.266;10.542;2023-12-20T04:24:47;5.46;95.26
64961;SHT31;51487;52.266;10.542;2023-12-20T04:27:12;5.46;95.38
64961;SHT31;51487;52.266;10.542;2023-12-20T04:29:38;5.48;95.28
64961;SHT31;51487;52.266;10.542;2023-12-20T04:32:04;5.39;95.52
64961;SHT31;51487;52.266;10.542;2023-12-20T04:34:31;5.33;95.43
64961;SHT31;51487;52.266;10.542;2023-12-20T04:36:56;5.36;95.60
64961;SHT31;51487;52.266;10.542;2023-12-20T04:39:22;5.44;94.79
64961;SHT31;51487;52.266;10.542;2023-12-20T04:41:47;5.41;95.06
64961;SHT31;51487;52.266;10.542;2023-12-20T04:44:13;5.43;95.36
64961;SHT31;51487;52.266;10.542;2023-12-20T04:46:39;5.52;95.36
64961;SHT31;51487;52.266;10.542;2023-12-20T04:49:05;5.58;94.73
64961;SHT31;51487;52.266;10.542;2023-12-20T04:51:34;5.62;94.75
64961;SHT31;51487;52.266;10.542;2023-12-20T04:54:00;5.68;95.68
64961;SHT31;51487;52.266;10.542;2023-12-20T04:56:25;5.71;94.78
64961;SHT31;51487;52.266;10.542;2023-12-20T04:58:51;5.70;95.05
64961;SHT31;51487;52.266;10.542;2023-12-20T05:01:16;5.68;94.27
64961;SHT31;51487;52.266;10.542;2023-12-20T05:03:42;5.82;94.45
64961;SHT31;51487;52.266;10.542;2023-12-20T05:06:07;5.81;94.14
64961;SHT31;51487;52.266;10.542;2023-12-20T05:08:33;5.89;93.35
64961;SHT31;51487;52.266;10.542;2023-12-20T05:10:58;5.88;94.03
64961;SHT31;51487;52.266;10.542;2023-12-20T05:13:24;5.85;93.93
64961;SHT31;51487;52.266;10.542;2023-12-20T05:15:50;5.94;93.17
64961;SHT31;51487;52.266;10.542;2023-12-20T05:18:16;5.94;93.08
64961;SHT31;51487;52.266;10.542;2023-12-20T05:20:41;5.92;93.48
64961;SHT31;51487;52.266;10.542;2023-12-20T05:23:07;6.05;93.26
64961;SHT31;51487;52.266;10.542;2023-12-20T05:25:33;6.16;92.63
64961;SHT31;51487;52.266;10.542;2023-12-20T05:27:59;6.12;92.89
64961;SHT31;51487;52.266;10.542;2023-12-20T05:30:24;6.12;93.29
64961;SHT31;51487;52.266;10.542;2023-12-20T05:32:49;6.32;92.46
64961;SHT31;51487;52.266;10.542;2023-12-20T05:35:15;6.33;92.25
64961;SHT31;51487;52.266;10.542;2023-12-20T05:37:41;6.28;92.27
64961;SHT31;51487;52.266;10.542;2023-12-20T05:40:08;6.30;92.80
64961;SHT31;51487;52.266;10.542;2023-12-20T05:42:36;6.34;92.33
64961;SHT31;51487;52.266;10.542;2023-12-20T05:45:02;6.37;92.04
64961;SHT31;51487;52.266;10.542;2023-12-20T05:47:28;6.36;91.93
64961;SHT31;51487;52.266;10.542;2023-12-20T05:49:53;6.43;91.67
64961;SHT31;51487;52.266;10.542;2023-12-20T05:52:19;6.49;91.96
64961;SHT31;51487;52.266;10.542;2023-12-20T05:54:44;6.44;91.72
64961;SHT31;51487;52.266;10.542;2023-12-20T05:57:10;6.53;91.95
64961;SHT31;51487;52.266;10.542;2023-12-20T05:59:35;6.54;91.70
64961;SHT31;51487;52.266;10.542;2023-12-20T06:02:03;6.57;91.32
64961;SHT31;51487;52.266;10.542;2023-12-20T06:04:30;6.70;91.61
64961;SHT31;51487;52.266;10.542;2023-12-20T06:06:55;6.67;91.20
64961;SHT31;51487;52.266;10.542;2023-12-20T06:09:21;6.57;91.92
64961;SHT31;51487;52.266;10.542;2023-12-20T06:11:46;6.63;91.78
64961;SHT31;51487;52.266;10.542;2023-12-20T06:14:12;6.67;91.31
64961;SHT31;51487;52.266;10.542;2023-12-20T06:16:37;6.70;91.40
64961;SHT31;51487;52.266;10.542;2023-12-20T06:19:03;6.64;92.53
64961;SHT31;51487;52.266;10.542;2023-12-20T06:21:28;6.56;92.85
64961;SHT31;51487;52.266;10.542;2023-12-20T06:23:54;6.63;92.48
64961;SHT31;51487;52.266;10.542;2023-12-20T06:26:20;6.58;92.22
64961;SHT31;51487;52.266;10.542;2023-12-20T06:28:45;6.70;92.30
64961;SHT31;51487;52.266;10.542;2023-12-20T06:31:11;6.64;92.19
64961;SHT31;51487;52.266;10.542;2023-12-20T06:33:36;6.60;92.14
64961;SHT31;51487;52.266;10.542;2023-12-20T06:36:03;6.78;92.03
64961;SHT31;51487;52.266;10.542;2023-12-20T06:38:28;6.78;91.85
64961;SHT31;51487;52.266;10.542;2023-12-20T06:40:54;6.77;91.83
64961;SHT31;51487;52.266;10.542;2023-12-20T06:43:19;6.76;92.11
64961;SHT31;51487;52.266;10.542;2023-12-20T06:45:45;6.76;91.90
64961;SHT31;51487;52.266;10.542;2023-12-20T06:48:10;6.74;92.13
64961;SHT31;51487;52.266;10.542;2023-12-20T06:50:38;6.83;91.92
64961;SHT31;51487;52.266;10.542;2023-12-20T06:53:06;6.80;92.14
64961;SHT31;51487;52.266;10.542;2023-12-20T06:55:34;6.88;91.95
64961;SHT31;51487;52.266;10.542;2023-12-20T06:58:02;6.87;91.52
64961;SHT31;51487;52.266;10.542;2023-12-20T07:00:27;6.77;91.88
64961;SHT31;51487;52.266;10.542;2023-12-20T07:02:53;6.76;92.36
64961;SHT31;51487;52.266;10.542;2023-12-20T07:05:19;6.71;91.84
64961;SHT31;51487;52.266;10.542;2023-12-20T07:07:46;6.70;91.91
64961;SHT31;51487;52.266;10.542;2023-12-20T07:10:13;6.80;91.96
64961;SHT31;51487;52.266;10.542;2023-12-20T07:12:38;6.81;91.63
64961;SHT31;51487;52.266;10.542;2023-12-20T07:15:04;6.70;92.07
64961;SHT31;51487;52.266;10.542;2023-12-20T07:17:32;6.63;92.97
64961;SHT31;51487;52.266;10.542;2023-12-20T07:19:58;6.66;92.70
64961;SHT31;51487;52.266;10.542;2023-12-20T07:22:24;6.64;93.07
64961;SHT31;51487;52.266;10.542;2023-12-20T07:24:49;6.68;92.84
64961;SHT31;51487;52.266;10.542;2023-12-20T07:27:17;6.63;93.51
64961;SHT31;51487;52.266;10.542;2023-12-20T07:29:43;6.61;93.13
64961;SHT31;51487;52.266;10.542;2023-12-20T07:32:08;6.63;93.29
64961;SHT31;51487;52.266;10.542;2023-12-20T07:34:34;6.73;92.88
64961;SHT31;51487;52.266;10.542;2023-12-20T07:36:59;6.74;92.24
64961;SHT31;51487;52.266;10.542;2023-12-20T07:39:25;6.70;92.45
64961;SHT31;51487;52.266;10.542;2023-12-20T07:41:50;6.64;92.55
64961;SHT31;51487;52.266;10.542;2023-12-20T07:44:16;6.76;91.79
64961;SHT31;51487;52.266;10.542;2023-12-20T07:46:41;6.76;91.73
64961;SHT31;51487;52.266;10.542;2023-12-20T07:49:07;6.70;91.59
64961;SHT31;51487;52.266;10.542;2023-12-20T07:51:33;6.57;91.98
64961;SHT31;51487;52.266;10.542;2023-12-20T07:53:59;6.54;92.48
64961;SHT31;51487;52.266;10.542;2023-12-20T07:56:25;6.39;92.77
64961;SHT31;51487;52.266;10.542;2023-12-20T07:58:50;6.46;92.48
64961;SHT31;51487;52.266;10.542;2023-12-20T08:01:16;6.39;92.59
64961;SHT31;51487;52.266;10.542;2023-12-20T08:03:43;6.39;92.89
64961;SHT31;51487;52.266;10.542;2023-12-20T08:06:09;6.40;92.63
64961;SHT31;51487;52.266;10.542;2023-12-20T08:08:34;6.37;92.85
64961;SHT31;51487;52.266;10.542;2023-12-20T08:11:00;6.40;93.00
64961;SHT31;51487;52.266;10.542;2023-12-20T08:13:26;6.44;93.26
64961;SHT31;51487;52.266;10.542;2023-12-20T08:15:53;6.54;92.38
64961;SHT31;51487;52.266;10.542;2023-12-20T08:18:18;6.64;92.11
64961;SHT31;51487;52.266;10.542;2023-12-20T08:20:44;6.73;91.45
64961;SHT31;51487;52.266;10.542;2023-12-20T08:23:10;6.74;92.00
64961;SHT31;51487;52.266;10.542;2023-12-20T08:25:35;6.85;91.13
64961;SHT31;51487;52.266;10.542;2023-12-20T08:28:02;6.81;91.04
64961;SHT31;51487;52.266;10.542;2023-12-20T08:30:28;6.89;90.69
64961;SHT31;51487;52.266;10.542;2023-12-20T08:32:55;6.84;90.61
64961;SHT31;51487;52.266;10.542;2023-12-20T08:35:20;6.83;90.85
64961;SHT31;51487;52.266;10.542;2023-12-20T08:37:46;6.89;90.68
64961;SHT31;51487;52.266;10.542;2023-12-20T08:40:12;6.78;91.52
64961;SHT31;51487;52.266;10.542;2023-12-20T08:42:37;6.95;91.20
64961;SHT31;51487;52.266;10.542;2023-12-20T08:45:03;6.92;90.94
64961;SHT31;51487;52.266;10.542;2023-12-20T08:47:29;6.88;91.14
64961;SHT31;51487;52.266;10.542;2023-12-20T08:49:55;6.95;91.30
64961;SHT31;51487;52.266;10.542;2023-12-20T08:52:23;6.99;91.94
64961;SHT31;51487;52.266;10.542;2023-12-20T08:54:50;7.05;91.74
64961;SHT31;51487;52.266;10.542;2023-12-20T08:57:19;7.02;92.04
64961;SHT31;51487;52.266;10.542;2023-12-20T08:59:47;6.92;92.39
64961;SHT31;51487;52.266;10.542;2023-12-20T09:02:14;6.98;92.47
64961;SHT31;51487;52.266;10.542;2023-12-20T09:04:39;6.91;93.18
64961;SHT31;51487;52.266;10.542;2023-12-20T09:07:05;6.85;91.98
64961;SHT31;51487;52.266;10.542;2023-12-20T09:09:30;6.89;91.46
64961;SHT31;51487;52.266;10.542;2023-12-20T09:11:57;6.99;91.31
64961;SHT31;51487;52.266;10.542;2023-12-20T09:14:23;7.16;90.72
64961;SHT31;51487;52.266;10.542;2023-12-20T09:16:49;6.98;91.49
64961;SHT31;51487;52.266;10.542;2023-12-20T09:19:17;7.08;91.09
64961;SHT31;51487;52.266;10.542;2023-12-20T09:21:43;7.23;90.17
64961;SHT31;51487;52.266;10.542;2023-12-20T09:24:08;7.25;90.02
64961;SHT31;51487;52.266;10.542;2023-12-20T09:26:34;7.32;89.45
64961;SHT31;51487;52.266;10.542;2023-12-20T09:29:00;7.15;89.73
64961;SHT31;51487;52.266;10.542;2023-12-20T09:31:25;7.23;89.74
64961;SHT31;51487;52.266;10.542;2023-12-20T09:33:51;7.26;89.85
64961;SHT31;51487;52.266;10.542;2023-12-20T09:36:17;7.29;89.67
64961;SHT31;51487;52.266;10.542;2023-12-20T09:38:42;7.28;89.62
64961;SHT31;51487;52.266;10.542;2023-12-20T09:41:08;7.28;89.69
64961;SHT31;51487;52.266;10.542;2023-12-20T09:43:37;7.30;89.37
64961;SHT31;51487;52.266;10.542;2023-12-20T09:46:05;7.42;89.59
64961;SHT31;51487;52.266;10.542;2023-12-20T09:48:32;7.40;89.28
64961;SHT31;51487;52.266;10.542;2023-12-20T09:50:59;7.36;89.41
64961;SHT31;51487;52.266;10.542;2023-12-20T09:53:26;7.42;89.90
64961;SHT31;51487;52.266;10.542;2023-12-20T09:55:58;7.38;89.45
64961;SHT31;51487;52.266;10.542;2023-12-20T09:58:25;7.40;89.03
64961;SHT31;51487;52.266;10.542;2023-12-20T10:00:52;7.33;89.33
64961;SHT31;51487;52.266;10.542;2023-12-20T10:03:24;7.35;89.10
64961;SHT31;51487;52.266;10.542;2023-12-20T10:05:54;7.32;89.29
64961;SHT31;51487;52.266;10.542;2023-12-20T10:08:22;7.19;90.05
64961;SHT31;51487;52.266;10.542;2023-12-20T10:10:48;7.29;89.48
64961;SHT31;51487;52.266;10.542;2023-12-20T10:13:15;7.30;89.31
64961;SHT31;51487;52.266;10.542;2023-12-20T10:15:41;7.35;89.26
64961;SHT31;51487;52.266;10.542;2023-12-20T10:18:07;7.39;89.77
64961;SHT31;51487;52.266;10.542;2023-12-20T10:20:32;7.47;88.67
64961;SHT31;51487;52.266;10.542;2023-12-20T10:22:59;7.56;88.58
64961;SHT31;51487;52.266;10.542;2023-12-20T10:25:26;7.60;88.32
64961;SHT31;51487;52.266;10.542;2023-12-20T10:28:11;7.53;88.21
64961;SHT31;51487;52.266;10.542;2023-12-20T10:30:37;7.67;88.14
64961;SHT31;51487;52.266;10.542;2023-12-20T10:33:06;7.70;87.62
64961;SHT31;51487;52.266;10.542;2023-12-20T10:35:34;7.62;87.74
64961;SHT31;51487;52.266;10.542;2023-12-20T10:38:04;7.63;87.77
64961;SHT31;51487;52.266;10.542;2023-12-20T10:40:34;7.70;87.39
64961;SHT31;51487;52.266;10.542;2023-12-20T10:43:01;7.74;87.36
64961;SHT31;51487;52.266;10.542;2023-12-20T10:45:27;7.65;88.01
64961;SHT31;51487;52.266;10.542;2023-12-20T10:47:53;7.65;87.66
64961;SHT31;51487;52.266;10.542;2023-12-20T10:50:19;7.66;87.47
64961;SHT31;51487;52.266;10.542;2023-12-20T10:52:47;7.67;87.95
64961;SHT31;51487;52.266;10.542;2023-12-20T10:55:13;7.77;87.43
64961;SHT31;51487;52.266;10.542;2023-12-20T10:57:39;7.63;88.29
64961;SHT31;51487;52.266;10.542;2023-12-20T11:00:09;7.69;87.61
64961;SHT31;51487;52.266;10.542;2023-12-20T11:02:40;7.65;88.06
64961;SHT31;51487;52.266;10.542;2023-12-20T11:10:51;7.66;88.38
64961;SHT31;51487;52.266;10.542;2023-12-20T11:13:31;7.60;88.22
64961;SHT31;51487;52.266;10.542;2023-12-20T11:15:59;7.63;88.78
64961;SHT31;51487;52.266;10.542;2023-12-20T11:18:31;7.63;88.94
64961;SHT31;51487;52.266;10.542;2023-12-20T11:21:05;7.62;89.73
64961;SHT31;51487;52.266;10.542;2023-12-20T11:23:32;7.63;88.85
64961;SHT31;51487;52.266;10.542;2023-12-20T11:25:59;7.65;89.18
64961;SHT31;51487;52.266;10.542;2023-12-20T11:28:27;7.56;89.21
64961;SHT31;51487;52.266;10.542;2023-12-20T11:30:55;7.62;89.05
64961;SHT31;51487;52.266;10.542;2023-12-20T11:33:23;7.60;89.83
64961;SHT31;51487;52.266;10.542;2023-12-20T11:35:49;7.66;89.21
64961;SHT31;51487;52.266;10.542;2023-12-20T11:38:15;7.62;89.35
64961;SHT31;51487;52.266;10.542;2023-12-20T11:40:42;7.60;89.97
64961;SHT31;51487;52.266;10.542;2023-12-20T11:43:08;7.67;89.38
64961;SHT31;51487;52.266;10.542;2023-12-20T11:45:35;7.67;89.29
64961;SHT31;51487;52.266;10.542;2023-12-20T11:48:02;7.53;90.39
64961;SHT31;51487;52.266;10.542;2023-12-20T11:50:29;7.60;90.40
64961;SHT31;51487;52.266;10.542;2023-12-20T11:52:56;7.56;90.79
64961;SHT31;51487;52.266;10.542;2023-12-20T11:55:22;7.47;91.05
64961;SHT31;51487;52.266;10.542;2023-12-20T11:57:51;7.60;90.54
64961;SHT31;51487;52.266;10.542;2023-12-20T12:00:18;7.53;91.15
64961;SHT31;51487;52.266;10.542;2023-12-20T12:02:55;7.55;92.06
64961;SHT31;51487;52.266;10.542;2023-12-20T12:05:21;7.52;92.34
64961;SHT31;51487;52.266;10.542;2023-12-20T12:07:47;7.46;93.06
64961;SHT31;51487;52.266;10.542;2023-12-20T12:10:12;7.46;92.98
64961;SHT31;51487;52.266;10.542;2023-12-20T12:12:38;7.43;92.93
64961;SHT31;51487;52.266;10.542;2023-12-20T12:15:05;7.35;93.46
64961;SHT31;51487;52.266;10.542;2023-12-20T12:17:31;7.32;93.81
64961;SHT31;51487;52.266;10.542;2023-12-20T12:20:05;7.29;94.33
64961;SHT31;51487;52.266;10.542;2023-12-20T12:22:31;7.29;95.21
64961;SHT31;51487;52.266;10.542;2023-12-20T12:25:09;7.16;95.39
64961;SHT31;51487;52.266;10.542;2023-12-20T12:27:35;7.08;95.84
64961;SHT31;51487;52.266;10.542;2023-12-20T12:30:03;7.02;95.68
64961;SHT31;51487;52.266;10.542;2023-12-20T12:32:29;6.94;96.95
64961;SHT31;51487;52.266;10.542;2023-12-20T12:34:55;6.98;97.25
64961;SHT31;51487;52.266;10.542;2023-12-20T12:37:20;7.04;96.92
64961;SHT31;51487;52.266;10.542;2023-12-20T12:39:49;7.09;95.69
64961;SHT31;51487;52.266;10.542;2023-12-20T12:42:14;7.04;95.77
64961;SHT31;51487;52.266;10.542;2023-12-20T12:44:40;7.04;95.35
64961;SHT31;51487;52.266;10.542;2023-12-20T12:47:05;6.97;96.44
64961;SHT31;51487;52.266;10.542;2023-12-20T12:49:32;6.92;96.01
64961;SHT31;51487;52.266;10.542;2023-12-20T12:51:57;6.84;96.46
64961;SHT31;51487;52.266;10.542;2023-12-20T12:54:24;6.94;95.26
64961;SHT31;51487;52.266;10.542;2023-12-20T12:56:50;6.92;93.41
64961;SHT31;51487;52.266;10.542;2023-12-20T12:59:16;6.92;92.60
64961;SHT31;51487;52.266;10.542;2023-12-20T13:01:42;6.97;91.84
64961;SHT31;51487;52.266;10.542;2023-12-20T13:04:08;6.71;92.70
64961;SHT31;51487;52.266;10.542;2023-12-20T13:06:37;6.70;92.07
64961;SHT31;51487;52.266;10.542;2023-12-20T13:09:03;6.70;92.03
64961;SHT31;51487;52.266;10.542;2023-12-20T13:11:30;6.58;91.28
64961;SHT31;51487;52.266;10.542;2023-12-20T13:13:57;6.61;91.30
64961;SHT31;51487;52.266;10.542;2023-12-20T13:16:26;6.56;91.02
64961;SHT31;51487;52.266;10.542;2023-12-20T13:18:52;6.47;92.09
64961;SHT31;51487;52.266;10.542;2023-12-20T13:21:17;6.41;91.04
64961;SHT31;51487;52.266;10.542;2023-12-20T13:23:43;6.19;91.65
64961;SHT31;51487;52.266;10.542;2023-12-20T13:26:09;6.19;91.56
64961;SHT31;51487;52.266;10.542;2023-12-20T13:28:34;6.16;91.02
64961;SHT31;51487;52.266;10.542;2023-12-20T13:30:59;6.16;90.43
64961;SHT31;51487;52.266;10.542;2023-12-20T13:33:25;6.01;90.48
64961;SHT31;51487;52.266;10.542;2023-12-20T13:35:51;5.95;91.18
64961;SHT31;51487;52.266;10.542;2023-12-20T13:38:16;5.89;90.22
64961;SHT31;51487;52.266;10.542;2023-12-20T13:40:42;5.84;90.66
64961;SHT31;51487;52.266;10.542;2023-12-20T13:43:08;5.84;90.71
64961;SHT31;51487;52.266;10.542;2023-12-20T13:45:35;5.87;89.61
64961;SHT31;51487;52.266;10.542;2023-12-20T13:48:01;5.95;89.91
64961;SHT31;51487;52.266;10.542;2023-12-20T13:50:26;6.02;89.01
64961;SHT31;51487;52.266;10.542;2023-12-20T13:52:52;6.03;89.84
64961;SHT31;51487;52.266;10.542;2023-12-20T13:55:18;6.09;88.84
64961;SHT31;51487;52.266;10.542;2023-12-20T13:57:47;6.16;89.02
64961;SHT31;51487;52.266;10.542;2023-12-20T14:00:14;6.19;88.77
64961;SHT31;51487;52.266;10.542;2023-12-20T14:02:43;6.19;88.94
64961;SHT31;51487;52.266;10.542;2023-12-20T14:05:09;6.19;88.67
64961;SHT31;51487;52.266;10.542;2023-12-20T14:07:36;6.19;88.52
64961;SHT31;51487;52.266;10.542;2023-12-20T14:10:01;6.15;89.22
64961;SHT31;51487;52.266;10.542;2023-12-20T14:12:27;6.18;88.79
64961;SHT31;51487;52.266;10.542;2023-12-20T14:14:52;6.29;89.10
64961;SHT31;51487;52.266;10.542;2023-12-20T14:17:17;6.28;89.21
64961;SHT31;51487;52.266;10.542;2023-12-20T14:19:43;6.30;89.48
64961;SHT31;51487;52.266;10.542;2023-12-20T14:22:09;6.32;89.68
64961;SHT31;51487;52.266;10.542;2023-12-20T14:24:35;6.34;89.49
64961;SHT31;51487;52.266;10.542;2023-12-20T14:27:01;6.32;89.32
64961;SHT31;51487;52.266;10.542;2023-12-20T14:29:27;6.39;89.57
64961;SHT31;51487;52.266;10.542;2023-12-20T14:31:53;6.37;89.26
64961;SHT31;51487;52.266;10.542;2023-12-20T14:34:18;6.32;89.90
64961;SHT31;51487;52.266;10.542;2023-12-20T14:36:44;6.37;89.44
64961;SHT31;51487;52.266;10.542;2023-12-20T14:39:09;6.46;89.50
64961;SHT31;51487;52.266;10.542;2023-12-20T14:41:38;6.49;89.40
64961;SHT31;51487;52.266;10.542;2023-12-20T14:44:06;6.40;90.34
64961;SHT31;51487;52.266;10.542;2023-12-20T14:46:31;6.37;90.28
64961;SHT31;51487;52.266;10.542;2023-12-20T14:48:57;6.40;90.47
64961;SHT31;51487;52.266;10.542;2023-12-20T14:51:22;6.43;90.63
64961;SHT31;51487;52.266;10.542;2023-12-20T14:53:48;6.51;90.23
64961;SHT31;51487;52.266;10.542;2023-12-20T14:56:14;6.51;90.15
64961;SHT31;51487;52.266;10.542;2023-12-20T14:58:40;6.60;90.39
64961;SHT31;51487;52.266;10.542;2023-12-20T15:01:05;6.63;90.04
64961;SHT31;51487;52.266;10.542;2023-12-20T15:03:34;6.60;89.72
64961;SHT31;51487;52.266;10.542;2023-12-20T15:06:00;6.58;89.68
64961;SHT31;51487;52.266;10.542;2023-12-20T15:08:26;6.64;89.60
64961;SHT31;51487;52.266;10.542;2023-12-20T15:10:51;6.68;89.69
64961;SHT31;51487;52.266;10.542;2023-12-20T15:13:17;8.35;96.83
64961;SHT31;51487;52.266;10.542;2023-12-20T15:15:42;9.41;86.07
64961;SHT31;51487;52.266;10.542;2023-12-20T15:18:08;10.69;83.09
64961;SHT31;51487;52.266;10.542;2023-12-20T15:20:33;10.91;80.75
64961;SHT31;51487;52.266;10.542;2023-12-20T15:23:01;9.35;79.21
64961;SHT31;51487;52.266;10.542;2023-12-20T15:25:32;8.57;81.48
64961;SHT31;51487;52.266;10.542;2023-12-20T15:27:58;8.12;82.24
64961;SHT31;51487;52.266;10.542;2023-12-20T15:30:24;7.65;83.45